Time;durP1;ratioP1;P1;durP2;ratioP2;P2;SDS_P1;SDS_P2;PMS_P1;PMS_P2;Temp;Humidity;BMP_temperature;BMP_pressure;BME280_temperature;BME280_humidity;BME280_pressure;Samples;Min_cycle;Max_cycle;Signal;HPM_P1;HPM_P2
2023/08/30 00:02:46;;;;;;;12.13;10.80;;;;;;;13.50;77.59;99703.69;10259692;28;20055;-82
2023/08/30 00:07:49;;;;;;;14.02;10.45;;;;;;;13.44;77.99;99707.88;10250961;28;20054;-78
2023/08/30 00:12:52;;;;;;;14.93;10.70;;;;;;;13.37;78.34;99714.06;10264535;28;20084;-78
2023/08/30 00:17:56;;;;;;;11.00;9.90;;;;;;;13.39;78.06;99704.81;10265856;28;20057;-78
2023/08/30 00:22:59;;;;;;;12.48;11.18;;;;;;;13.38;78.24;99703.09;10256833;28;20102;-79
2023/08/30 00:28:02;;;;;;;11.50;10.32;;;;;;;13.46;77.68;99700.44;10252575;28;20422;-78
2023/08/30 00:33:06;;;;;;;13.38;10.45;;;;;;;13.34;77.64;99693.63;10262169;28;20062;-78
2023/08/30 00:38:09;;;;;;;12.60;10.88;;;;;;;13.32;77.95;99692.91;10261141;28;20050;-79
2023/08/30 00:43:13;;;;;;;14.65;10.82;;;;;;;13.38;77.91;99691.47;10257744;28;20047;-79
2023/08/30 00:48:19;;;;;;;14.18;11.80;;;;;;;13.28;77.88;99692.41;10254941;28;20076;-79
2023/08/30 00:53:22;;;;;;;14.48;12.68;;;;;;;13.39;78.27;99687.78;10258654;28;20185;-81
2023/08/30 00:58:26;;;;;;;18.60;13.35;;;;;;;13.51;77.59;99678.41;10260780;28;20054;-80
2023/08/30 01:03:30;;;;;;;17.20;13.30;;;;;;;13.56;76.89;99684.16;10257419;28;20051;-77
2023/08/30 01:08:34;;;;;;;22.88;14.35;;;;;;;13.57;76.70;99675.06;10236145;28;20063;-78
2023/08/30 01:13:46;;;;;;;17.65;14.75;;;;;;;13.53;76.65;99680.94;10256225;28;20552;-81
2023/08/30 01:18:53;;;;;;;17.35;14.45;;;;;;;13.59;76.66;99678.44;10253306;28;20050;-79
2023/08/30 01:23:59;;;;;;;17.33;13.35;;;;;;;13.79;76.30;99672.78;10253544;28;20050;-77
2023/08/30 01:29:05;;;;;;;14.70;13.00;;;;;;;13.85;75.67;99664.03;10250320;28;20138;-79
2023/08/30 01:34:09;;;;;;;16.75;12.30;;;;;;;13.68;75.73;99668.53;10254588;28;20050;-78
2023/08/30 01:39:14;;;;;;;12.98;11.05;;;;;;;13.66;76.14;99663.31;10260410;28;20070;-77
2023/08/30 01:44:19;;;;;;;13.88;12.15;;;;;;;13.54;75.93;99675.38;10265304;28;20718;-77
2023/08/30 01:49:23;;;;;;;15.85;11.13;;;;;;;13.49;76.33;99670.50;10252733;28;20049;-77
2023/08/30 01:54:27;;;;;;;15.07;10.45;;;;;;;13.36;76.16;99669.19;10252749;28;20154;-77
2023/08/30 01:59:31;;;;;;;14.30;9.88;;;;;;;13.31;76.81;99666.13;10253625;28;20066;-79
2023/08/30 02:04:34;;;;;;;12.40;10.68;;;;;;;13.20;76.76;99661.84;10300904;28;20054;-77
2023/08/30 02:09:43;;;;;;;13.02;10.23;;;;;;;13.23;77.12;99672.31;10272288;28;21157;-79
2023/08/30 02:14:49;;;;;;;12.38;10.40;;;;;;;13.30;76.62;99667.94;10256788;28;20066;-80
2023/08/30 02:19:53;;;;;;;12.65;10.77;;;;;;;13.22;76.93;99663.38;10258256;28;20284;-79
2023/08/30 02:24:56;;;;;;;13.43;10.77;;;;;;;13.27;77.09;99658.34;10261690;28;20063;-79
2023/08/30 02:30:00;;;;;;;14.20;11.02;;;;;;;13.32;76.80;99662.41;10261826;28;20057;-79
2023/08/30 02:35:04;;;;;;;14.18;10.93;;;;;;;13.36;76.56;99661.09;10263083;28;20059;-78
2023/08/30 02:40:08;;;;;;;12.60;10.55;;;;;;;13.40;76.52;99660.63;10260696;28;20515;-77
2023/08/30 02:45:15;;;;;;;12.18;10.27;;;;;;;13.48;76.23;99660.69;10261130;28;20058;-78
2023/08/30 02:50:18;;;;;;;11.07;9.95;;;;;;;13.40;76.36;99657.94;10261283;28;20080;-79
2023/08/30 02:55:21;;;;;;;12.57;9.98;;;;;;;13.44;76.03;99648.53;10262869;28;20050;-81
2023/08/30 03:00:25;;;;;;;14.10;10.77;;;;;;;13.34;76.29;99644.22;10265153;28;20046;-78
2023/08/30 03:05:28;;;;;;;17.42;10.57;;;;;;;13.30;76.20;99648.22;10268212;28;20053;-80
2023/08/30 03:10:32;;;;;;;13.65;10.65;;;;;;;13.26;76.23;99643.16;10265190;28;20517;-79
2023/08/30 03:15:36;;;;;;;13.55;11.00;;;;;;;13.17;76.72;99644.13;10261429;28;20054;-80
2023/08/30 03:20:39;;;;;;;12.75;10.48;;;;;;;13.15;76.67;99635.34;10262177;28;20059;-80
2023/08/30 03:25:42;;;;;;;14.88;10.25;;;;;;;13.17;76.79;99641.44;10258901;28;20149;-79
2023/08/30 03:30:47;;;;;;;13.02;10.73;;;;;;;13.23;76.60;99648.03;10267462;28;21143;-80
2023/08/30 03:35:50;;;;;;;11.90;9.90;;;;;;;13.28;76.33;99649.25;10262555;28;20050;-78
2023/08/30 03:40:54;;;;;;;10.77;9.68;;;;;;;13.19;76.38;99641.25;10252262;28;20065;-77
2023/08/30 03:45:59;;;;;;;11.48;10.02;;;;;;;13.22;76.50;99635.56;10250636;28;20053;-80
2023/08/30 03:51:02;;;;;;;13.77;10.55;;;;;;;13.26;76.12;99645.88;10251197;28;20075;-77
2023/08/30 03:56:05;;;;;;;12.52;10.30;;;;;;;13.15;76.06;99643.44;10255877;28;20053;-77
2023/08/30 04:01:09;;;;;;;12.38;9.70;;;;;;;13.06;76.49;99639.00;10251528;28;20047;-77
2023/08/30 04:06:13;;;;;;;12.70;9.05;;;;;;;13.01;76.65;99641.34;10259040;28;20054;-77
2023/08/30 04:11:16;;;;;;;14.75;9.77;;;;;;;12.93;77.13;99636.72;10250646;28;20141;-77
2023/08/30 04:16:22;;;;;;;12.95;11.48;;;;;;;12.87;77.36;99634.66;10256283;28;20046;-78
2023/08/30 04:21:25;;;;;;;13.30;10.55;;;;;;;12.82;77.61;99628.91;10254411;28;20062;-77
2023/08/30 04:26:28;;;;;;;14.35;9.23;;;;;;;12.81;77.81;99622.66;10250529;28;20051;-79
2023/08/30 04:31:33;;;;;;;15.40;10.70;;;;;;;12.85;77.67;99622.34;10264145;28;20054;-79
2023/08/30 04:36:37;;;;;;;17.67;9.98;;;;;;;12.90;77.49;99620.88;10255892;28;20081;-77
2023/08/30 04:41:40;;;;;;;12.45;11.13;;;;;;;12.90;77.71;99622.72;10254640;28;20058;-79
2023/08/30 04:46:44;;;;;;;15.80;10.60;;;;;;;12.86;77.35;99626.72;10255236;28;21365;-78
2023/08/30 04:51:48;;;;;;;18.40;12.20;;;;;;;12.69;77.81;99633.84;10244766;28;20523;-77
2023/08/30 04:56:51;;;;;;;13.32;11.80;;;;;;;12.80;78.26;99633.59;10258915;28;20518;-78
2023/08/30 05:01:56;;;;;;;14.88;11.80;;;;;;;12.84;77.99;99624.19;10258926;28;20070;-78
2023/08/30 05:07:01;;;;;;;14.10;11.80;;;;;;;12.95;77.94;99615.84;10256697;28;20522;-79
2023/08/30 05:12:06;;;;;;;18.75;13.32;;;;;;;13.04;77.56;99620.28;10256991;28;20055;-80
2023/08/30 05:17:11;;;;;;;19.65;12.63;;;;;;;13.09;76.98;99624.38;10260981;28;20129;-79
2023/08/30 05:22:14;;;;;;;19.95;13.00;;;;;;;13.07;77.11;99616.44;10264523;28;20106;-77
2023/08/30 05:27:18;;;;;;;14.50;11.75;;;;;;;13.10;77.27;99609.88;10259155;28;20045;-79
2023/08/30 05:32:22;;;;;;;15.73;12.38;;;;;;;13.07;77.22;99616.44;10250944;28;20078;-80
2023/08/30 05:37:40;;;;;;;15.13;12.52;;;;;;;13.09;77.66;99608.19;10256953;28;20101;-77
2023/08/30 05:43:04;;;;;;;17.98;12.45;;;;;;;13.16;77.24;99610.06;10251809;28;20050;-77
2023/08/30 05:48:08;;;;;;;15.90;13.00;;;;;;;13.21;77.77;99588.03;10253976;28;21173;-79
2023/08/30 05:53:12;;;;;;;17.95;14.93;;;;;;;13.40;77.72;99584.25;10252218;28;20057;-77
2023/08/30 05:58:15;;;;;;;19.63;14.55;;;;;;;13.46;77.24;99587.16;10245716;28;21182;-77
2023/08/30 06:03:19;;;;;;;18.45;14.77;;;;;;;13.54;76.99;99590.91;10253831;28;20514;-78
2023/08/30 06:08:22;;;;;;;20.77;14.25;;;;;;;13.64;76.76;99589.75;10252796;28;20135;-77
2023/08/30 06:13:25;;;;;;;20.35;13.35;;;;;;;13.76;76.72;99576.78;10256577;28;20039;-79
2023/08/30 06:18:31;;;;;;;19.08;14.27;;;;;;;14.37;76.08;99574.69;10248203;28;20046;-77
2023/08/30 06:23:34;;;;;;;15.75;9.27;;;;;;;14.59;73.83;99570.53;10249029;28;20058;-78
2023/08/30 06:28:37;;;;;;;15.98;13.38;;;;;;;14.41;73.46;99570.69;10258754;28;20050;-77
2023/08/30 06:33:42;;;;;;;19.63;15.35;;;;;;;14.33;73.69;99571.47;10266244;28;20070;-79
2023/08/30 06:38:45;;;;;;;21.60;16.02;;;;;;;14.35;73.61;99568.63;10260730;28;20050;-77
2023/08/30 06:43:48;;;;;;;20.70;16.33;;;;;;;14.32;74.36;99561.72;10260157;28;20461;-77
2023/08/30 06:48:52;;;;;;;20.15;15.50;;;;;;;14.60;74.02;99556.81;10265739;28;20054;-79
2023/08/30 06:54:00;;;;;;;24.48;16.08;;;;;;;14.66;74.06;99543.63;10265684;28;20047;-79
2023/08/30 06:59:03;;;;;;;22.30;16.83;;;;;;;14.85;73.74;99562.19;10260711;28;20062;-79
2023/08/30 07:04:07;;;;;;;23.42;17.80;;;;;;;14.91;73.23;99550.69;10290047;28;20050;-78
2023/08/30 07:09:11;;;;;;;25.83;18.15;;;;;;;15.23;72.90;99552.44;10297050;28;20061;-80
2023/08/30 07:14:14;;;;;;;26.05;17.77;;;;;;;15.53;72.09;99555.41;10277777;28;20165;-79
2023/08/30 07:19:18;;;;;;;26.15;18.77;;;;;;;15.58;71.07;99561.13;10264276;28;20042;-76
2023/08/30 07:24:22;;;;;;;28.35;18.88;;;;;;;15.56;71.10;99562.31;10252091;28;20050;-76
2023/08/30 07:29:25;;;;;;;25.60;18.52;;;;;;;15.65;71.61;99559.38;10243929;28;20059;-77
2023/08/30 07:34:29;;;;;;;29.75;20.67;;;;;;;15.74;71.70;99543.09;10244097;28;20062;-76
2023/08/30 07:39:32;;;;;;;28.60;20.08;;;;;;;15.93;69.75;99540.78;10244347;28;20116;-77
2023/08/30 07:44:35;;;;;;;26.88;21.58;;;;;;;16.03;69.55;99540.53;10240149;28;20074;-77
2023/08/30 07:49:39;;;;;;;26.58;19.58;;;;;;;16.61;69.43;99530.09;10247894;28;20043;-77
2023/08/30 07:54:42;;;;;;;29.38;20.63;;;;;;;17.08;68.06;99526.19;10244671;28;20055;-76
2023/08/30 07:59:45;;;;;;;27.95;19.80;;;;;;;17.10;66.15;99532.28;10243637;28;20470;-76
2023/08/30 08:04:51;;;;;;;26.65;20.98;;;;;;;17.04;66.78;99533.88;10249062;28;20057;-76
2023/08/30 08:09:55;;;;;;;25.92;20.55;;;;;;;17.06;66.24;99528.28;10245282;28;20066;-76
2023/08/30 08:14:58;;;;;;;26.73;20.40;;;;;;;16.95;65.75;99540.44;10250423;28;20050;-76
2023/08/30 08:20:02;;;;;;;28.38;21.70;;;;;;;17.17;64.89;99535.97;10250997;28;20059;-76
2023/08/30 08:25:05;;;;;;;27.40;19.92;;;;;;;17.02;65.72;99535.09;10245829;28;20073;-76
2023/08/30 08:30:10;;;;;;;23.98;20.00;;;;;;;18.01;63.05;99524.66;10245713;28;20054;-76
2023/08/30 08:35:15;;;;;;;25.13;20.33;;;;;;;19.55;59.24;99521.97;10245521;28;20042;-76
2023/08/30 08:40:18;;;;;;;28.23;21.38;;;;;;;20.34;55.38;99517.78;10248731;28;20081;-76
2023/08/30 08:45:36;;;;;;;25.48;17.90;;;;;;;20.56;54.23;99512.97;10242796;28;20043;-77
2023/08/30 08:50:40;;;;;;;24.73;17.38;;;;;;;19.84;55.08;99515.38;10246391;28;20137;-77
2023/08/30 08:55:45;;;;;;;24.50;17.10;;;;;;;19.16;57.09;99511.75;10244713;28;20537;-76
2023/08/30 09:00:49;;;;;;;20.15;16.95;;;;;;;18.43;58.04;99516.66;10240059;28;20079;-76
2023/08/30 09:05:54;;;;;;;22.25;16.17;;;;;;;18.69;57.35;99514.16;10238746;28;20093;-75
2023/08/30 09:10:57;;;;;;;24.98;16.10;;;;;;;18.46;56.82;99513.56;10245043;28;20054;-76
2023/08/30 09:16:01;;;;;;;21.77;14.73;;;;;;;19.24;55.96;99511.56;10248774;28;20053;-76
2023/08/30 09:21:10;;;;;;;18.83;12.15;;;;;;;18.83;54.99;99515.13;10247034;28;20054;-76
2023/08/30 09:26:13;;;;;;;18.67;14.43;;;;;;;19.44;54.53;99507.06;10243933;28;20039;-77
2023/08/30 09:31:20;;;;;;;16.48;12.85;;;;;;;19.54;54.01;99503.13;10248865;28;20155;-77
2023/08/30 09:36:26;;;;;;;16.27;13.43;;;;;;;20.50;52.24;99502.91;10245808;28;20915;-76
2023/08/30 09:41:29;;;;;;;18.48;12.45;;;;;;;20.63;50.08;99491.97;10243310;28;21223;-77
2023/08/30 09:46:32;;;;;;;13.63;9.80;;;;;;;19.84;50.39;99490.88;10246514;28;20050;-77
2023/08/30 09:51:55;;;;;;;15.25;11.85;;;;;;;19.82;50.70;99489.38;10245578;28;20062;-77
2023/08/30 09:57:01;;;;;;;15.73;10.35;;;;;;;19.19;51.09;99475.94;10240322;28;20043;-77
2023/08/30 10:02:05;;;;;;;13.18;9.88;;;;;;;19.81;50.33;99477.66;10242169;28;20542;-77
2023/08/30 10:07:10;;;;;;;13.48;10.27;;;;;;;19.89;49.54;99471.19;10243314;28;20418;-77
2023/08/30 10:12:13;;;;;;;10.95;8.70;;;;;;;20.50;47.67;99464.72;10248434;28;20042;-76
2023/08/30 10:17:19;;;;;;;10.63;7.90;;;;;;;20.08;47.47;99467.63;10247900;28;20682;-77
2023/08/30 10:22:24;;;;;;;12.68;9.13;;;;;;;20.27;45.81;99455.06;10241917;28;20050;-77
2023/08/30 10:27:27;;;;;;;11.13;8.35;;;;;;;20.42;45.06;99454.84;10246747;28;20039;-76
2023/08/30 10:32:31;;;;;;;12.90;8.18;;;;;;;20.90;44.48;99448.25;10244815;28;20070;-78
2023/08/30 10:37:35;;;;;;;11.25;8.23;;;;;;;21.33;43.93;99443.06;11282404;23;20039;-76
2023/08/30 10:42:39;;;;;;;9.55;8.25;;;;;;;20.52;46.16;99432.63;10230329;29;20422;-77
2023/08/30 10:47:42;;;;;;;10.73;6.97;;;;;;;20.00;46.63;99437.84;10227915;28;20051;-77
2023/08/30 10:52:55;;;;;;;7.38;6.45;;;;;;;19.19;47.66;99437.84;10238690;28;20047;-76
2023/08/30 10:58:00;;;;;;;7.20;6.30;;;;;;;18.79;49.03;99435.78;10229446;28;20055;-76
2023/08/30 11:03:04;;;;;;;8.65;6.80;;;;;;;19.01;49.12;99413.91;10235903;28;20055;-76
2023/08/30 11:08:11;;;;;;;10.98;6.85;;;;;;;18.98;49.51;99420.59;10236203;28;20043;-76
2023/08/30 11:13:16;;;;;;;10.43;6.95;;;;;;;18.78;49.42;99417.78;10231831;28;20051;-77
2023/08/30 11:18:20;;;;;;;10.23;7.65;;;;;;;18.72;49.79;99415.00;10240635;28;20086;-76
2023/08/30 11:23:24;;;;;;;10.70;7.35;;;;;;;18.81;50.68;99405.66;10238491;28;20506;-76
2023/08/30 11:28:27;;;;;;;7.82;6.30;;;;;;;19.04;49.94;99407.22;10247758;28;20043;-77
2023/08/30 11:33:30;;;;;;;11.68;6.43;;;;;;;18.61;50.15;99401.97;10241794;28;20079;-76
2023/08/30 11:38:35;;;;;;;10.05;7.00;;;;;;;18.62;49.96;99395.47;10239001;28;20513;-76
2023/08/30 11:43:39;;;;;;;7.05;6.32;;;;;;;18.67;49.63;99393.81;10232247;28;20043;-76
2023/08/30 11:48:42;;;;;;;8.48;5.20;;;;;;;18.89;50.29;99381.00;10237267;28;20047;-76
2023/08/30 11:53:47;;;;;;;9.40;6.13;;;;;;;19.21;48.94;99367.72;10236724;28;20055;-76
2023/08/30 11:58:51;;;;;;;7.80;5.30;;;;;;;19.80;47.36;99367.00;10227605;28;20058;-76
2023/08/30 12:03:54;;;;;;;7.90;5.22;;;;;;;20.41;46.42;99362.34;10243305;28;20046;-78
2023/08/30 12:09:03;;;;;;;5.45;4.80;;;;;;;20.60;46.37;99353.28;10240371;28;20131;-76
2023/08/30 12:14:06;;;;;;;6.35;4.22;;;;;;;19.98;45.57;99349.16;10239564;28;20046;-76
2023/08/30 12:19:10;;;;;;;4.30;3.90;;;;;;;19.63;46.41;99354.81;10238110;28;20050;-76
2023/08/30 12:24:14;;;;;;;5.20;4.18;;;;;;;19.66;46.24;99332.59;10234380;28;20465;-76
2023/08/30 12:29:17;;;;;;;6.13;3.80;;;;;;;19.58;46.33;99332.81;10238222;28;20051;-76
2023/08/30 12:34:20;;;;;;;5.72;3.60;;;;;;;19.76;47.21;99337.66;10237816;28;20442;-75
2023/08/30 12:39:25;;;;;;;4.82;3.55;;;;;;;19.43;46.78;99343.88;10232604;28;20050;-75
2023/08/30 12:44:28;;;;;;;5.75;4.15;;;;;;;19.20;47.88;99336.94;10240490;28;20047;-76
2023/08/30 12:49:30;;;;;;;6.25;4.07;;;;;;;18.68;48.85;99346.56;10228180;28;20062;-76
2023/08/30 12:54:35;;;;;;;5.88;4.32;;;;;;;18.39;49.38;99363.16;10226946;28;20043;-77
2023/08/30 12:59:37;;;;;;;6.32;4.38;;;;;;;18.20;50.17;99367.41;10238412;28;20043;-76
2023/08/30 13:04:40;;;;;;;6.65;4.50;;;;;;;17.48;54.23;99362.00;10222866;28;20056;-76
2023/08/30 13:09:44;;;;;;;8.10;5.22;;;;;;;17.58;54.06;99371.66;10230586;28;20055;-76
2023/08/30 13:14:48;;;;;;;11.07;8.40;;;;;;;17.20;58.48;99367.34;10223039;28;20079;-78
2023/08/30 13:19:51;;;;;;;9.43;7.65;;;;;;;17.42;60.35;99360.06;10236483;28;20103;-78
2023/08/30 13:24:56;;;;;;;11.02;9.43;;;;;;;17.12;66.00;99363.88;10242305;28;20048;-77
2023/08/30 13:29:59;;;;;;;12.40;10.80;;;;;;;16.85;69.90;99370.88;10225145;28;20047;-77
2023/08/30 13:35:02;;;;;;;11.93;10.32;;;;;;;16.43;72.59;99373.25;10242552;28;20411;-77
2023/08/30 13:40:08;;;;;;;16.20;10.98;;;;;;;16.20;73.23;99375.16;10236651;28;20055;-79
2023/08/30 13:45:13;;;;;;;12.43;11.13;;;;;;;16.32;73.13;99390.81;10241723;28;20039;-77
2023/08/30 13:50:16;;;;;;;16.52;13.35;;;;;;;15.12;78.29;99401.38;10249269;28;20407;-77
2023/08/30 13:55:21;;;;;;;17.35;13.10;;;;;;;15.68;77.19;99401.19;10260965;28;20589;-77
2023/08/30 14:00:24;;;;;;;18.63;14.82;;;;;;;15.61;80.10;99405.66;10254774;28;20439;-76
2023/08/30 14:05:27;;;;;;;17.20;15.32;;;;;;;15.05;82.29;99400.38;10239253;28;20043;-78
2023/08/30 14:10:31;;;;;;;21.77;17.83;;;;;;;14.37;86.92;99399.94;10243708;28;20035;-77
2023/08/30 14:15:34;;;;;;;23.02;16.48;;;;;;;13.91;90.41;99401.56;10241090;28;20112;-78
2023/08/30 14:20:37;;;;;;;20.67;17.98;;;;;;;13.89;91.50;99398.16;10239146;28;20486;-76
2023/08/30 14:25:41;;;;;;;24.55;18.77;;;;;;;13.73;92.05;99404.41;10240528;28;20051;-76
2023/08/30 14:30:44;;;;;;;24.63;18.88;;;;;;;13.25;95.58;99409.56;10235504;28;20051;-76
2023/08/30 14:35:47;;;;;;;27.88;20.33;;;;;;;13.98;93.67;99404.41;10238469;28;20048;-75
2023/08/30 14:40:56;;;;;;;26.35;20.38;;;;;;;14.04;93.84;99403.72;10238470;28;20048;-76
2023/08/30 14:46:03;;;;;;;27.85;20.52;;;;;;;14.31;93.24;99391.69;10244961;28;20038;-77
2023/08/30 14:51:13;;;;;;;26.38;20.65;;;;;;;14.29;93.88;99391.88;10256403;28;20414;-76
2023/08/30 14:56:18;;;;;;;20.63;16.23;;;;;;;14.05;93.56;99373.00;10246872;28;20490;-76
2023/08/30 15:01:21;;;;;;;19.90;16.25;;;;;;;14.23;94.74;99368.22;10252317;28;20047;-76
2023/08/30 15:06:24;;;;;;;23.88;17.35;;;;;;;14.36;94.83;99365.00;10248527;28;20525;-76
2023/08/30 15:11:28;;;;;;;19.35;16.92;;;;;;;14.40;94.68;99366.38;10244891;28;20044;-75
2023/08/30 15:16:31;;;;;;;20.25;17.48;;;;;;;14.36;93.86;99371.22;10245439;28;20042;-76
2023/08/30 15:21:36;;;;;;;22.80;17.60;;;;;;;14.31;94.12;99383.56;10249689;28;20039;-76
2023/08/30 15:26:41;;;;;;;21.52;16.33;;;;;;;14.05;94.77;99387.34;10246591;28;20199;-76
2023/08/30 15:31:45;;;;;;;16.50;13.60;;;;;;;13.93;94.70;99384.16;10251297;28;20051;-76
2023/08/30 15:36:48;;;;;;;15.27;13.63;;;;;;;13.82;94.77;99389.91;10263140;28;20055;-76
2023/08/30 15:41:52;;;;;;;16.55;14.75;;;;;;;13.80;94.39;99391.94;10254129;28;20139;-76
2023/08/30 15:46:55;;;;;;;19.05;15.85;;;;;;;13.97;95.06;99387.38;10253223;28;20094;-76
2023/08/30 15:51:58;;;;;;;18.48;16.13;;;;;;;13.91;93.88;99385.34;10251198;28;20810;-76
2023/08/30 15:57:02;;;;;;;16.10;12.50;;;;;;;13.80;93.63;99386.53;10251720;28;20582;-77
2023/08/30 16:02:05;;;;;;;14.70;12.98;;;;;;;13.78;94.59;99375.06;10245098;28;20043;-76
2023/08/30 16:07:08;;;;;;;15.63;12.55;;;;;;;13.60;93.37;99377.06;10245857;28;20039;-75
2023/08/30 16:12:12;;;;;;;15.10;13.20;;;;;;;13.42;94.38;99380.78;10248068;28;20047;-75
2023/08/30 16:17:15;;;;;;;19.55;13.98;;;;;;;13.67;94.50;99387.03;10250800;28;20044;-75
2023/08/30 16:22:20;;;;;;;18.30;15.40;;;;;;;13.62;94.57;99380.47;10251769;28;20051;-75
2023/08/30 16:27:24;;;;;;;18.52;14.90;;;;;;;13.66;94.79;99376.44;10238590;28;20035;-75
2023/08/30 16:32:27;;;;;;;17.23;14.40;;;;;;;13.71;94.14;99380.31;10254232;28;20066;-75
2023/08/30 16:37:30;;;;;;;21.17;15.73;;;;;;;13.68;94.83;99385.19;10252331;28;20494;-76
2023/08/30 16:42:34;;;;;;;20.02;14.80;;;;;;;13.58;94.06;99390.75;10246591;28;20074;-76
2023/08/30 16:47:37;;;;;;;19.38;14.82;;;;;;;13.44;94.99;99383.34;10242629;28;20043;-76
2023/08/30 16:53:00;;;;;;;18.92;14.93;;;;;;;13.45;95.07;99388.53;10251675;28;20383;-76
2023/08/30 16:58:04;;;;;;;21.35;15.55;;;;;;;13.43;95.36;99406.75;10245740;28;20574;-76
2023/08/30 17:03:07;;;;;;;22.92;18.55;;;;;;;13.45;95.71;99411.97;10249841;28;20043;-76
2023/08/30 17:08:10;;;;;;;24.60;18.17;;;;;;;13.46;95.33;99403.72;10245890;28;20494;-76
2023/08/30 17:13:14;;;;;;;29.10;20.92;;;;;;;13.34;95.42;99386.16;10242276;28;20035;-76
2023/08/30 17:18:17;;;;;;;19.30;16.20;;;;;;;13.14;94.31;99376.69;10242108;28;20039;-76
2023/08/30 17:23:21;;;;;;;20.15;15.88;;;;;;;12.97;94.86;99392.81;10242016;28;20490;-76
2023/08/30 17:28:25;;;;;;;19.38;15.43;;;;;;;13.03;95.25;99402.94;10242376;28;20035;-76
2023/08/30 17:33:30;;;;;;;22.05;16.75;;;;;;;12.96;96.16;99418.06;10245829;28;20411;-77
2023/08/30 17:38:35;;;;;;;17.00;13.48;;;;;;;12.69;96.67;99421.81;10245427;28;20035;-77
2023/08/30 17:43:40;;;;;;;17.60;11.85;;;;;;;12.68;96.36;99405.84;10241773;28;20419;-77
2023/08/30 17:48:44;;;;;;;14.88;12.02;;;;;;;12.85;95.80;99410.28;10234482;28;20071;-77
2023/08/30 17:53:48;;;;;;;11.93;8.55;;;;;;;12.48;96.15;99398.00;10241797;28;20054;-77
2023/08/30 17:58:52;;;;;;;13.35;10.25;;;;;;;12.36;97.34;99389.34;10246123;28;20079;-78
2023/08/30 18:03:55;;;;;;;13.90;10.80;;;;;;;12.78;94.30;99366.13;10249322;28;20082;-77
2023/08/30 18:08:59;;;;;;;15.27;11.52;;;;;;;12.67;94.79;99385.28;10249832;28;20035;-77
2023/08/30 18:14:03;;;;;;;14.00;10.48;;;;;;;12.80;94.08;99370.34;10248345;28;20058;-77
2023/08/30 18:19:06;;;;;;;12.68;11.00;;;;;;;12.71;94.19;99400.97;10250277;28;20046;-79
2023/08/30 18:24:14;;;;;;;11.98;9.60;;;;;;;12.93;93.21;99391.44;10255725;28;20044;-78
2023/08/30 18:29:20;;;;;;;13.98;10.57;;;;;;;12.68;93.46;99398.59;10252365;28;20043;-77
2023/08/30 18:34:23;;;;;;;14.25;11.13;;;;;;;12.74;93.43;99400.63;10253047;28;20098;-77
2023/08/30 18:39:26;;;;;;;14.27;10.23;;;;;;;12.55;93.59;99411.66;10256178;28;20047;-78
2023/08/30 18:44:30;;;;;;;15.45;11.15;;;;;;;12.69;93.22;99419.13;10257030;28;20496;-78
2023/08/30 18:49:33;;;;;;;14.27;11.55;;;;;;;12.77;93.08;99416.47;10247742;28;20494;-77
2023/08/30 18:54:39;;;;;;;17.10;11.13;;;;;;;12.66;93.35;99426.69;10271119;28;20050;-77
2023/08/30 18:59:43;;;;;;;17.33;12.07;;;;;;;12.73;93.76;99439.38;10275582;28;20043;-77
2023/08/30 19:04:46;;;;;;;13.77;11.05;;;;;;;12.83;92.93;99458.97;10266937;28;20047;-78
2023/08/30 19:09:49;;;;;;;21.38;14.27;;;;;;;12.65;95.30;99476.22;10265075;28;20055;-77
2023/08/30 19:14:53;;;;;;;18.85;15.02;;;;;;;12.72;94.98;99470.00;10261900;28;20563;-78
2023/08/30 19:19:56;;;;;;;18.58;13.65;;;;;;;12.57;94.64;99477.84;10258124;28;20106;-78
2023/08/30 19:24:59;;;;;;;22.42;14.43;;;;;;;12.91;93.16;99470.78;10253890;28;20115;-77
2023/08/30 19:30:04;;;;;;;26.92;16.55;;;;;;;12.89;93.14;99470.06;10254238;28;20039;-77
2023/08/30 19:35:07;;;;;;;23.77;16.50;;;;;;;12.90;93.14;99466.41;10250000;28;20039;-77
2023/08/30 19:40:10;;;;;;;27.55;18.02;;;;;;;12.92;93.28;99473.31;10253197;28;20047;-78
2023/08/30 19:45:16;;;;;;;25.38;18.38;;;;;;;13.00;93.66;99478.75;10253560;28;20043;-77
2023/08/30 19:50:20;;;;;;;26.52;17.23;;;;;;;12.92;93.06;99483.25;10251058;28;20051;-76
2023/08/30 19:55:23;;;;;;;28.85;17.38;;;;;;;12.89;93.13;99486.25;10227892;28;20062;-76
2023/08/30 20:00:27;;;;;;;30.83;19.90;;;;;;;12.87;93.46;99494.50;10209778;28;20537;-76
2023/08/30 20:05:30;;;;;;;28.10;19.52;;;;;;;12.88;93.41;99487.28;10209594;28;20580;-77
2023/08/30 20:10:33;;;;;;;30.05;20.08;;;;;;;12.75;93.17;99487.69;10212157;28;20062;-77
2023/08/30 20:15:38;;;;;;;27.70;17.30;;;;;;;12.60;92.94;99488.28;10211743;28;20058;-76
2023/08/30 20:20:42;;;;;;;27.95;18.98;;;;;;;12.54;92.58;99480.84;10218201;28;20054;-76
2023/08/30 20:25:45;;;;;;;27.58;18.02;;;;;;;12.42;92.75;99487.50;10220988;28;20213;-76
2023/08/30 20:30:51;;;;;;;23.58;16.88;;;;;;;12.44;92.29;99501.66;10229026;28;20767;-76
2023/08/30 20:35:54;;;;;;;21.95;15.57;;;;;;;12.42;92.23;99492.03;10210065;28;20502;-76
2023/08/30 20:40:57;;;;;;;22.58;14.65;;;;;;;12.31;92.25;99502.09;10210972;28;20055;-76
2023/08/30 20:46:01;;;;;;;18.13;14.68;;;;;;;12.30;91.87;99508.47;10207525;28;20043;-76
2023/08/30 20:51:04;;;;;;;26.17;15.13;;;;;;;12.33;92.15;99512.69;10224405;28;20083;-77
2023/08/30 20:56:08;;;;;;;22.13;15.68;;;;;;;12.15;91.96;99510.84;10208918;28;20047;-77
2023/08/30 21:01:13;;;;;;;24.25;14.15;;;;;;;12.05;92.50;99511.94;10208742;28;20544;-77
2023/08/30 21:06:16;;;;;;;19.23;13.10;;;;;;;11.71;93.90;99524.25;10217653;28;20515;-78
2023/08/30 21:11:20;;;;;;;16.98;11.90;;;;;;;11.36;94.33;99525.03;10219676;28;20102;-78
2023/08/30 21:16:24;;;;;;;18.60;12.43;;;;;;;11.60;94.08;99516.41;10226761;28;20490;-78
2023/08/30 21:21:27;;;;;;;14.13;10.38;;;;;;;11.43;93.92;99526.09;10222926;28;20128;-77
2023/08/30 21:26:30;;;;;;;19.35;12.68;;;;;;;11.64;93.08;99533.91;10212554;28;20054;-76
2023/08/30 21:31:34;;;;;;;17.77;11.98;;;;;;;11.70;92.17;99530.59;10217399;28;20058;-76
2023/08/30 21:36:37;;;;;;;19.38;12.27;;;;;;;11.54;92.88;99534.97;10213273;28;20053;-76
2023/08/30 21:41:40;;;;;;;20.90;14.02;;;;;;;11.68;91.81;99534.44;10210302;28;20059;-76
2023/08/30 21:46:45;;;;;;;20.77;13.95;;;;;;;11.60;92.07;99539.72;10210506;28;20051;-75
2023/08/30 21:51:47;;;;;;;23.98;15.18;;;;;;;11.63;91.79;99543.00;10208057;28;20050;-76
2023/08/30 21:56:50;;;;;;;25.08;16.00;;;;;;;11.59;92.54;99551.50;10215662;28;20043;-76
2023/08/30 22:01:55;;;;;;;29.33;17.00;;;;;;;11.68;92.15;99559.53;10209600;28;21275;-76
2023/08/30 22:06:58;;;;;;;31.10;19.10;;;;;;;11.69;92.15;99557.66;10204633;28;20047;-76
2023/08/30 22:12:01;;;;;;;28.80;20.40;;;;;;;11.77;91.87;99556.91;10206885;28;20811;-77
2023/08/30 22:17:05;;;;;;;29.67;19.90;;;;;;;11.73;91.83;99561.72;10205735;28;20055;-77
2023/08/30 22:22:08;;;;;;;30.52;21.50;;;;;;;11.76;91.51;99558.75;10207797;28;20062;-77
2023/08/30 22:27:12;;;;;;;31.13;20.95;;;;;;;11.76;91.72;99563.28;10207968;28;20055;-76
2023/08/30 22:32:16;;;;;;;34.35;22.90;;;;;;;11.78;91.61;99551.38;10205100;28;20051;-76
2023/08/30 22:37:20;;;;;;;33.63;21.35;;;;;;;11.60;92.04;99558.56;10214489;28;20070;-76
2023/08/30 22:42:24;;;;;;;36.20;23.15;;;;;;;11.71;91.07;99552.97;10204380;28;20051;-77
2023/08/30 22:47:28;;;;;;;35.20;24.52;;;;;;;11.71;91.23;99564.59;10207750;28;20062;-76
2023/08/30 22:52:31;;;;;;;37.72;23.95;;;;;;;11.71;91.26;99552.97;10207423;28;20146;-77
2023/08/30 22:57:34;;;;;;;38.67;26.02;;;;;;;11.69;91.01;99549.59;10214210;28;20062;-76
2023/08/30 23:02:39;;;;;;;39.53;25.67;;;;;;;11.63;91.19;99556.44;10209229;28;20055;-77
2023/08/30 23:07:42;;;;;;;43.45;25.85;;;;;;;11.66;91.14;99561.50;10212386;28;20515;-77